Terminal Aerodrome Forecast
Issued by NWS

Home | Current Version | Previous Version | Text Only | Print | Product List | Glossary On
Versions: 1 2 3 4 5 6 7 8 9 10 11 12 13 14 15
000
FTUS46 KMTR 282300
TAFOAK
TAF
KOAK 282337Z 2900/3006 29013KT P6SM FEW180
     FM290400 29008KT P6SM FEW007 FEW180
     FM290600 29006KT P6SM SCT007
     FM290800 29005KT P6SM BKN008
     FM291730 29009KT P6SM SKC
     FM292100 29015KT P6SM SKC
     FM300400 30009KT P6SM SKC=

USA.gov is the U.S. government's official web portal to all federal, state and local government web resources and services.